createdAt,value
2022-07-30T00:00:12.597Z,57277.75
2022-07-30T00:02:51.767Z,57286.09
2022-07-30T00:05:18.471Z,57292.38
2022-07-30T00:07:45.136Z,57275.66
2022-07-30T00:10:11.770Z,57277.75
2022-07-30T00:12:38.443Z,57250.63
2022-07-30T00:15:05.629Z,57279.84
2022-07-30T00:17:32.319Z,57261.06
2022-07-30T00:19:58.942Z,57334.09
2022-07-30T00:22:25.954Z,57281.94
2022-07-30T00:24:52.643Z,57290.28
2022-07-30T00:27:19.492Z,57271.50
2022-07-30T00:29:46.144Z,57311.16
2022-07-30T00:32:12.865Z,57269.41
2022-07-30T00:34:39.523Z,57263.16
2022-07-30T00:37:06.290Z,57286.09
2022-07-30T00:39:32.960Z,57258.97
2022-07-30T00:42:01.964Z,57286.09
2022-07-30T00:44:29.908Z,57263.16
2022-07-30T00:46:57.317Z,57244.34
2022-07-30T00:49:25.103Z,57323.66
2022-07-30T00:51:52.251Z,57256.88
2022-07-30T00:54:19.405Z,57292.38
2022-07-30T00:56:46.151Z,57240.19
2022-07-30T00:59:12.783Z,57261.06
2022-07-30T01:01:39.800Z,57315.31
2022-07-30T01:04:11.588Z,57265.22
2022-07-30T01:06:39.887Z,57275.66
2022-07-30T01:09:07.924Z,57284.00
2022-07-30T01:11:38.324Z,57294.44
2022-07-30T01:14:07.036Z,57258.97
2022-07-30T01:16:35.829Z,57244.34
2022-07-30T01:19:26.556Z,57292.38
2022-07-30T01:22:19.936Z,57256.88
2022-07-30T01:24:56.171Z,57281.94
2022-07-30T01:27:25.060Z,57250.63
2022-07-30T01:29:54.072Z,57248.53
2022-07-30T01:32:23.753Z,57258.97
2022-07-30T01:34:52.679Z,57252.72
2022-07-30T01:37:21.206Z,57298.63
2022-07-30T01:39:50.027Z,57290.28
2022-07-30T01:42:19.455Z,57304.88
2022-07-30T01:44:48.501Z,57288.19
2022-07-30T01:47:17.384Z,57321.59
2022-07-30T01:49:47.234Z,57275.66
2022-07-30T01:52:16.984Z,57277.75
2022-07-30T01:54:46.996Z,57309.06
2022-07-30T01:57:15.357Z,57256.88
2022-07-30T01:59:45.920Z,57294.44
2022-07-30T02:02:12.557Z,57269.41
2022-07-30T02:04:44.689Z,57311.16
2022-07-30T02:07:18.358Z,57279.84
2022-07-30T02:09:58.279Z,57271.50
2022-07-30T02:12:29.373Z,57332.03
2022-07-30T02:15:29.428Z,57281.94
2022-07-30T02:18:07.984Z,57273.56
2022-07-30T02:20:35.601Z,57288.19
2022-07-30T02:23:07.541Z,57298.63
2022-07-30T02:25:39.105Z,57311.16
2022-07-30T02:28:09.883Z,57263.16
2022-07-30T02:30:40.655Z,57290.28
2022-07-30T02:33:13.097Z,57290.28
2022-07-30T02:35:41.238Z,57281.94
2022-07-30T02:38:10.240Z,57288.19
2022-07-30T02:40:42.039Z,57294.44
2022-07-30T02:43:09.179Z,57256.88
2022-07-30T02:45:38.152Z,57275.66
2022-07-30T02:48:07.809Z,57294.44
2022-07-30T02:50:35.902Z,57296.53
2022-07-30T02:53:07.116Z,57306.97
2022-07-30T02:55:35.562Z,57294.44
2022-07-30T02:58:05.890Z,57281.94
2022-07-30T03:00:34.906Z,57319.50
2022-07-30T03:03:05.752Z,57288.19
2022-07-30T03:05:33.174Z,57242.28
2022-07-30T03:08:00.972Z,57298.63
2022-07-30T03:10:29.062Z,57246.44
2022-07-30T03:12:56.639Z,57284.00
2022-07-30T03:15:23.547Z,57252.72
2022-07-30T03:17:53.786Z,57279.84
2022-07-30T03:20:27.796Z,57294.44
2022-07-30T03:22:57.367Z,57315.31
2022-07-30T03:25:27.522Z,57273.56
2022-07-30T03:27:57.813Z,57302.81
2022-07-30T03:30:26.519Z,57267.31
2022-07-30T03:32:54.310Z,57275.66
2022-07-30T03:35:25.252Z,57298.63
2022-07-30T03:37:54.608Z,57254.78
2022-07-30T03:40:22.630Z,57290.28
2022-07-30T03:42:50.855Z,57323.66
2022-07-30T03:45:18.912Z,57269.41
2022-07-30T03:47:46.828Z,57311.16
2022-07-30T03:50:15.160Z,57290.28
2022-07-30T03:52:43.072Z,57298.63
2022-07-30T03:55:11.540Z,57304.88
2022-07-30T03:57:38.698Z,57284.00
2022-07-30T04:00:08.365Z,57242.28
2022-07-30T04:02:43.016Z,57238.09
2022-07-30T04:05:09.953Z,57265.22
2022-07-30T04:07:41.396Z,57242.28
2022-07-30T04:10:12.483Z,57236.00
2022-07-30T04:12:39.195Z,57240.19
2022-07-30T04:16:40.234Z,57238.09
2022-07-30T04:17:58.396Z,57202.63
2022-07-30T04:20:31.652Z,57221.41
2022-07-30T04:22:59.184Z,57188.00
2022-07-30T04:25:26.511Z,57231.84
2022-07-30T04:28:03.013Z,57210.97
2022-07-30T04:30:31.446Z,57206.78
2022-07-30T04:32:58.092Z,57223.50
2022-07-30T04:35:51.175Z,57165.03
2022-07-30T04:38:17.405Z,57202.63
2022-07-30T04:40:44.131Z,57204.69
2022-07-30T04:43:10.848Z,57200.53
2022-07-30T04:45:39.799Z,57156.69
2022-07-30T04:48:07.244Z,57204.69
2022-07-30T04:50:36.085Z,57194.25
2022-07-30T04:53:03.557Z,57179.66
2022-07-30T04:55:32.626Z,57208.88
2022-07-30T04:58:01.941Z,57181.75
2022-07-30T05:00:32.407Z,57162.97
2022-07-30T05:03:02.459Z,57223.50
2022-07-30T05:05:32.423Z,57185.91
2022-07-30T05:08:01.267Z,57125.38
2022-07-30T05:10:28.270Z,57175.47
2022-07-30T05:12:54.893Z,57137.91
2022-07-30T05:15:21.788Z,57125.38
2022-07-30T05:17:49.815Z,57125.38
2022-07-30T05:20:16.553Z,57152.53
2022-07-30T05:22:51.129Z,57108.69
2022-07-30T05:25:18.122Z,57175.47
2022-07-30T05:27:44.969Z,57119.13
2022-07-30T05:30:12.126Z,57094.09
2022-07-30T05:32:39.719Z,57104.53
2022-07-30T05:35:06.690Z,57092.00
2022-07-30T05:37:33.827Z,57100.34
2022-07-30T05:40:03.347Z,57127.47
2022-07-30T05:42:30.613Z,57085.75
2022-07-30T05:44:57.546Z,57117.03
2022-07-30T05:47:24.269Z,57087.81
2022-07-30T05:49:51.085Z,57140.00
2022-07-30T05:52:17.740Z,57133.75
2022-07-30T05:54:45.503Z,57119.13
2022-07-30T05:57:12.143Z,57098.25
2022-07-30T05:59:38.947Z,57104.53
2022-07-30T06:02:06.784Z,57106.59
2022-07-30T06:04:35.544Z,57129.56
2022-07-30T06:07:02.787Z,57108.69
2022-07-30T06:09:37.136Z,57092.00
2022-07-30T06:12:04.759Z,57092.00
2022-07-30T06:14:32.595Z,57089.91
2022-07-30T06:16:59.505Z,57096.16
2022-07-30T06:19:26.468Z,57077.38
2022-07-30T06:22:05.460Z,57104.53
2022-07-30T06:24:34.040Z,57121.22
2022-07-30T06:27:00.978Z,57129.56
2022-07-30T06:29:27.855Z,57154.59
2022-07-30T06:31:54.638Z,57194.25
2022-07-30T06:34:21.460Z,57165.03
2022-07-30T06:36:48.577Z,57146.25
2022-07-30T06:39:15.258Z,57200.53
2022-07-30T06:42:02.148Z,57196.34
2022-07-30T06:44:28.856Z,57152.53
2022-07-30T06:46:55.500Z,57175.47
2022-07-30T06:49:23.010Z,57175.47
2022-07-30T06:51:49.825Z,57181.75
2022-07-30T06:54:16.433Z,57137.91
2022-07-30T06:56:43.418Z,57215.13
2022-07-30T06:59:10.466Z,57192.19
2022-07-30T07:01:37.361Z,57144.19
2022-07-30T07:04:04.457Z,57179.66
2022-07-30T07:06:31.221Z,57206.78
2022-07-30T07:08:57.833Z,57206.78
2022-07-30T07:11:24.896Z,57160.88
2022-07-30T07:13:51.626Z,57192.19
2022-07-30T07:16:21.883Z,57183.84
2022-07-30T07:18:48.745Z,57192.19
2022-07-30T07:21:16.088Z,57217.22
2022-07-30T07:23:42.752Z,57204.69
2022-07-30T07:26:09.994Z,57194.25
2022-07-30T07:28:36.866Z,57162.97
2022-07-30T07:31:04.252Z,57185.91
2022-07-30T07:33:30.977Z,57223.50
2022-07-30T07:35:57.739Z,57183.84
2022-07-30T07:38:24.482Z,57221.41
2022-07-30T07:40:51.202Z,57190.09
2022-07-30T07:43:18.256Z,57188.00
2022-07-30T07:45:45.687Z,57125.38
2022-07-30T07:48:12.691Z,57200.53
2022-07-30T07:50:39.392Z,57171.31
2022-07-30T07:53:06.711Z,57171.31
2022-07-30T07:55:33.721Z,57140.00
2022-07-30T07:58:00.892Z,57135.81
2022-07-30T08:00:27.687Z,57183.84
2022-07-30T08:02:54.494Z,57158.78
2022-07-30T08:05:21.284Z,57165.03
2022-07-30T08:07:47.928Z,57185.91
2022-07-30T08:10:16.133Z,57160.88
2022-07-30T08:12:43.746Z,57173.41
2022-07-30T08:15:10.801Z,57169.22
2022-07-30T08:17:44.978Z,57144.19
2022-07-30T08:20:13.582Z,57204.69
2022-07-30T08:22:41.230Z,57140.00
2022-07-30T08:25:08.756Z,57133.75
2022-07-30T08:27:35.884Z,57181.75
2022-07-30T08:30:06.743Z,57160.88
2022-07-30T08:32:33.453Z,57125.38
2022-07-30T08:35:00.195Z,57125.38
2022-07-30T08:37:26.978Z,57112.88
2022-07-30T08:39:53.610Z,57121.22
2022-07-30T08:42:20.421Z,57146.25
2022-07-30T08:44:47.062Z,57160.88
2022-07-30T08:47:18.514Z,57185.91
2022-07-30T08:49:46.664Z,57179.66
2022-07-30T08:52:13.352Z,57179.66
2022-07-30T08:54:40.952Z,57156.69
2022-07-30T08:57:07.968Z,57154.59
2022-07-30T08:59:59.615Z,57142.09
2022-07-30T09:02:27.398Z,57148.34
2022-07-30T09:04:54.766Z,57148.34
2022-07-30T09:07:21.617Z,57156.69
2022-07-30T09:09:48.268Z,57154.59
2022-07-30T09:12:33.298Z,57190.09
2022-07-30T09:15:16.465Z,57154.59
2022-07-30T09:17:55.546Z,57185.91
2022-07-30T09:20:27.623Z,57144.19
2022-07-30T09:23:00.837Z,57162.97
2022-07-30T09:25:45.864Z,57181.75
2022-07-30T09:28:15.795Z,57215.13
2022-07-30T09:30:47.236Z,57175.47
2022-07-30T09:33:14.626Z,57173.41
2022-07-30T09:35:42.723Z,57188.00
2022-07-30T09:38:10.365Z,57219.31
2022-07-30T09:40:37.280Z,57158.78
2022-07-30T09:43:11.486Z,57177.56
2022-07-30T09:46:00.690Z,57165.03
2022-07-30T09:48:28.319Z,57160.88
2022-07-30T09:50:56.053Z,57156.69
2022-07-30T09:53:24.604Z,57158.78
2022-07-30T09:55:51.794Z,57171.31
2022-07-30T09:58:27.165Z,57162.97
2022-07-30T10:00:59.722Z,57181.75
2022-07-30T10:03:33.767Z,57154.59
2022-07-30T10:06:03.588Z,57150.44
2022-07-30T10:08:40.649Z,57196.34
2022-07-30T10:11:10.874Z,57171.31
2022-07-30T10:13:39.978Z,57208.88
2022-07-30T10:16:09.346Z,57183.84
2022-07-30T10:18:37.480Z,57183.84
2022-07-30T10:21:05.593Z,57175.47
2022-07-30T10:23:33.479Z,57175.47
2022-07-30T10:26:03.811Z,57219.31
2022-07-30T10:28:35.846Z,57192.19
2022-07-30T10:31:08.356Z,57169.22
2022-07-30T10:33:52.852Z,57146.25
2022-07-30T10:36:23.877Z,57192.19
2022-07-30T10:38:53.054Z,57177.56
2022-07-30T10:41:43.333Z,57160.88
2022-07-30T10:44:35.480Z,57148.34
2022-07-30T10:47:07.625Z,57148.34
2022-07-30T10:49:41.326Z,57158.78
2022-07-30T10:52:10.650Z,57154.59
2022-07-30T10:54:42.712Z,57181.75
2022-07-30T10:57:14.867Z,57179.66
2022-07-30T11:00:03.881Z,57175.47
2022-07-30T11:02:35.753Z,57171.31
2022-07-30T11:05:18.300Z,57150.44
2022-07-30T11:07:47.270Z,57204.69
2022-07-30T11:10:40.137Z,57200.53
2022-07-30T11:13:08.444Z,57194.25
2022-07-30T11:15:59.943Z,57177.56
2022-07-30T11:18:28.616Z,57142.09
2022-07-30T11:21:14.153Z,57202.63
2022-07-30T11:23:41.595Z,57173.41
2022-07-30T11:26:14.094Z,57150.44
2022-07-30T11:28:46.131Z,57169.22
2022-07-30T11:31:54.990Z,57206.78
2022-07-30T11:34:20.755Z,57171.31
2022-07-30T11:37:19.246Z,57177.56
2022-07-30T11:39:58.670Z,57133.75
2022-07-30T11:42:39.631Z,57171.31
2022-07-30T11:45:29.503Z,57179.66
2022-07-30T11:47:58.072Z,57200.53
2022-07-30T11:50:25.903Z,57158.78
2022-07-30T11:52:55.395Z,57183.84
2022-07-30T11:55:24.528Z,57165.03
2022-07-30T11:57:52.391Z,57173.41
2022-07-30T12:00:19.579Z,57177.56
2022-07-30T12:02:46.732Z,57144.19
2022-07-30T12:05:13.589Z,57183.84
2022-07-30T12:07:40.599Z,57165.03
2022-07-30T12:10:25.672Z,57188.00
2022-07-30T12:13:08.067Z,57146.25
2022-07-30T12:15:37.610Z,57146.25
2022-07-30T12:18:25.804Z,57146.25
2022-07-30T12:20:59.793Z,57154.59
2022-07-30T12:23:27.847Z,57171.31
2022-07-30T12:25:55.066Z,57171.31
2022-07-30T12:28:27.403Z,57114.97
2022-07-30T12:30:54.943Z,57146.25
2022-07-30T12:33:22.989Z,57169.22
2022-07-30T12:35:55.188Z,57131.66
2022-07-30T12:38:24.014Z,57152.53
2022-07-30T12:41:00.455Z,57179.66
2022-07-30T12:43:47.959Z,57171.31
2022-07-30T12:46:23.067Z,57133.75
2022-07-30T12:48:50.563Z,57133.75
2022-07-30T12:51:17.613Z,57117.03
2022-07-30T12:53:45.967Z,57144.19
2022-07-30T12:56:18.680Z,57146.25
2022-07-30T12:58:45.830Z,57112.88
2022-07-30T13:01:13.164Z,57121.22
2022-07-30T13:03:40.962Z,57129.56
2022-07-30T13:06:23.427Z,57127.47
2022-07-30T13:08:57.733Z,57146.25
2022-07-30T13:11:49.016Z,57156.69
2022-07-30T13:14:17.421Z,57140.00
2022-07-30T13:16:44.569Z,57156.69
2022-07-30T13:19:12.504Z,57131.66
2022-07-30T13:21:42.969Z,57119.13
2022-07-30T13:24:18.077Z,57175.47
2022-07-30T13:26:45.490Z,57144.19
2022-07-30T13:29:13.669Z,57133.75
2022-07-30T13:31:42.467Z,57144.19
2022-07-30T13:34:10.403Z,57177.56
2022-07-30T13:36:37.130Z,57127.47
2022-07-30T13:39:03.966Z,57165.03
2022-07-30T13:41:30.850Z,57165.03
2022-07-30T13:43:57.611Z,57173.41
2022-07-30T13:46:24.207Z,57148.34
2022-07-30T13:48:51.028Z,57121.22
2022-07-30T13:51:17.796Z,57133.75
2022-07-30T13:53:44.592Z,57192.19
2022-07-30T13:56:12.700Z,57129.56
2022-07-30T13:58:40.371Z,57152.53
2022-07-30T14:01:07.493Z,57140.00
2022-07-30T14:03:35.335Z,57171.31
2022-07-30T14:06:11.083Z,57127.47
2022-07-30T14:08:38.862Z,57117.03
2022-07-30T14:11:05.513Z,57137.91
2022-07-30T14:13:32.234Z,57173.41
2022-07-30T14:15:58.926Z,57156.69
2022-07-30T14:18:25.629Z,57146.25
2022-07-30T14:20:53.799Z,57192.19
2022-07-30T14:23:20.830Z,57160.88
2022-07-30T14:25:47.772Z,57142.09
2022-07-30T14:28:14.491Z,57154.59
2022-07-30T14:30:42.107Z,57146.25
2022-07-30T14:33:09.068Z,57129.56
2022-07-30T14:35:35.783Z,57162.97
2022-07-30T14:38:03.599Z,57158.78
2022-07-30T14:40:30.577Z,57154.59
2022-07-30T14:42:58.037Z,57146.25
2022-07-30T14:45:25.542Z,57165.03
2022-07-30T14:47:52.604Z,57169.22
2022-07-30T14:50:19.500Z,57179.66
2022-07-30T14:52:47.657Z,57175.47
2022-07-30T14:55:14.619Z,57158.78
2022-07-30T14:57:43.462Z,57183.84
2022-07-30T15:00:11.895Z,57133.75
2022-07-30T15:02:38.955Z,57162.97
2022-07-30T15:05:06.342Z,57129.56
2022-07-30T15:07:34.638Z,57177.56
2022-07-30T15:10:02.638Z,57200.53
2022-07-30T15:12:29.469Z,57202.63
2022-07-30T15:14:56.251Z,57221.41
2022-07-30T15:17:22.889Z,57213.06
2022-07-30T15:19:50.662Z,57210.97
2022-07-30T15:22:19.359Z,57225.56
2022-07-30T15:24:45.995Z,57223.50
2022-07-30T15:27:12.716Z,57238.09
2022-07-30T15:29:39.370Z,57238.09
2022-07-30T15:32:06.914Z,57250.63
2022-07-30T15:34:34.579Z,57204.69
2022-07-30T15:37:02.701Z,57221.41
2022-07-30T15:39:29.822Z,57215.13
2022-07-30T15:41:57.175Z,57219.31
2022-07-30T15:44:24.505Z,57217.22
2022-07-30T15:46:51.635Z,57248.53
2022-07-30T15:49:18.464Z,57217.22
2022-07-30T15:51:52.017Z,57200.53
2022-07-30T15:54:23.273Z,57198.44
2022-07-30T15:56:51.578Z,57198.44
2022-07-30T15:59:18.480Z,57156.69
2022-07-30T16:01:45.541Z,57181.75
2022-07-30T16:04:19.747Z,57200.53
2022-07-30T16:06:48.039Z,57204.69
2022-07-30T16:09:16.035Z,57144.19
2022-07-30T16:11:43.124Z,57181.75
2022-07-30T16:14:10.543Z,57175.47
2022-07-30T16:16:37.256Z,57171.31
2022-07-30T16:19:03.972Z,57156.69
2022-07-30T16:21:30.683Z,57185.91
2022-07-30T16:23:57.386Z,57192.19
2022-07-30T16:26:24.283Z,57188.00
2022-07-30T16:28:50.991Z,57210.97
2022-07-30T16:31:17.721Z,57225.56
2022-07-30T16:33:44.399Z,57146.25
2022-07-30T16:36:11.495Z,57177.56
2022-07-30T16:38:38.160Z,57223.50
2022-07-30T16:41:04.808Z,57204.69
2022-07-30T16:43:32.107Z,57208.88
2022-07-30T16:45:59.945Z,57200.53
2022-07-30T16:48:26.709Z,57213.06
2022-07-30T16:50:53.568Z,57177.56
2022-07-30T16:53:20.363Z,57183.84
2022-07-30T16:55:47.712Z,57165.03
2022-07-30T16:58:14.380Z,57183.84
2022-07-30T17:00:41.852Z,57179.66
2022-07-30T17:03:08.938Z,57177.56
2022-07-30T17:05:37.869Z,57169.22
2022-07-30T17:08:12.243Z,57208.88
2022-07-30T17:10:38.949Z,57204.69
2022-07-30T17:13:07.687Z,57202.63
2022-07-30T17:15:34.359Z,57213.06
2022-07-30T17:18:01.796Z,57204.69
2022-07-30T17:20:29.986Z,57213.06
2022-07-30T17:22:56.893Z,57204.69
2022-07-30T17:25:27.723Z,57236.00
2022-07-30T17:27:58.744Z,57200.53
2022-07-30T17:30:27.445Z,57198.44
2022-07-30T17:32:54.418Z,57204.69
2022-07-30T17:35:21.402Z,57273.56
2022-07-30T17:37:48.150Z,57229.75
2022-07-30T17:40:28.924Z,57252.72
2022-07-30T17:43:05.683Z,57204.69
2022-07-30T17:45:33.647Z,57200.53
2022-07-30T17:48:01.800Z,57267.31
2022-07-30T17:50:29.306Z,57240.19
2022-07-30T17:52:56.162Z,57238.09
2022-07-30T17:55:22.760Z,57229.75
2022-07-30T17:57:49.498Z,57288.19
2022-07-30T18:00:17.024Z,57238.09
2022-07-30T18:02:43.758Z,57244.34
2022-07-30T18:05:11.092Z,57279.84
2022-07-30T18:07:37.759Z,57213.06
2022-07-30T18:10:05.002Z,57200.53
2022-07-30T18:12:31.834Z,57240.19
2022-07-30T18:14:59.212Z,57258.97
2022-07-30T18:17:26.275Z,57256.88
2022-07-30T18:19:53.380Z,57236.00
2022-07-30T18:22:29.532Z,57254.78
2022-07-30T18:24:57.454Z,57254.78
2022-07-30T18:27:24.169Z,57231.84
2022-07-30T18:29:50.956Z,57250.63
2022-07-30T18:32:17.612Z,57254.78
2022-07-30T18:34:44.307Z,57254.78
2022-07-30T18:37:10.892Z,57273.56
2022-07-30T18:39:37.705Z,57258.97
2022-07-30T18:42:05.110Z,57273.56
2022-07-30T18:44:32.312Z,57281.94
2022-07-30T18:46:59.071Z,57309.06
2022-07-30T18:49:41.110Z,57223.50
2022-07-30T18:52:08.220Z,57263.16
2022-07-30T18:54:36.030Z,57250.63
2022-07-30T18:57:03.155Z,57284.00
2022-07-30T18:59:29.955Z,57271.50
2022-07-30T19:01:56.712Z,57263.16
2022-07-30T19:04:23.546Z,57296.53
2022-07-30T19:06:50.374Z,57294.44
2022-07-30T19:09:18.112Z,57258.97
2022-07-30T19:11:48.037Z,57288.19
2022-07-30T19:14:15.560Z,57313.22
2022-07-30T19:16:46.367Z,57275.66
2022-07-30T19:19:14.700Z,57281.94
2022-07-30T19:21:41.587Z,57286.09
2022-07-30T19:24:08.781Z,57244.34
2022-07-30T19:26:39.397Z,57313.22
2022-07-30T19:29:08.081Z,57275.66
2022-07-30T19:31:35.477Z,57261.06
2022-07-30T19:34:02.323Z,57277.75
2022-07-30T19:36:30.263Z,57275.66
2022-07-30T19:39:06.822Z,57300.72
2022-07-30T19:41:40.772Z,57284.00
2022-07-30T19:44:12.168Z,57238.09
2022-07-30T19:46:41.303Z,57286.09
2022-07-30T19:49:08.413Z,57265.22
2022-07-30T19:52:09.976Z,57286.09
2022-07-30T19:54:21.972Z,57279.84
2022-07-30T19:56:49.155Z,57273.56
2022-07-30T19:59:18.288Z,57298.63
2022-07-30T20:01:44.939Z,57300.72
2022-07-30T20:04:18.366Z,57286.09
2022-07-30T20:06:46.137Z,57263.16
2022-07-30T20:09:15.048Z,57252.72
2022-07-30T20:11:45.975Z,57294.44
2022-07-30T20:14:16.243Z,57279.84
2022-07-30T20:16:43.152Z,57271.50
2022-07-30T20:19:15.829Z,57284.00
2022-07-30T20:21:56.462Z,57286.09
2022-07-30T20:24:24.531Z,57300.72
2022-07-30T20:26:52.442Z,57309.06
2022-07-30T20:29:20.737Z,57294.44
2022-07-30T20:31:49.767Z,57271.50
2022-07-30T20:34:18.188Z,57290.28
2022-07-30T20:36:45.132Z,57306.97
2022-07-30T20:39:18.282Z,57271.50
2022-07-30T20:41:45.266Z,57300.72
2022-07-30T20:44:23.047Z,57271.50
2022-07-30T20:46:50.600Z,57258.97
2022-07-30T20:49:23.628Z,57248.53
2022-07-30T20:51:55.601Z,57279.84
2022-07-30T20:54:22.319Z,57250.63
2022-07-30T20:56:51.029Z,57340.38
2022-07-30T20:59:18.314Z,57267.31
2022-07-30T21:01:50.358Z,57279.84
2022-07-30T21:04:25.547Z,57242.28
2022-07-30T21:06:52.636Z,57267.31
2022-07-30T21:09:19.975Z,57279.84
2022-07-30T21:11:50.242Z,57288.19
2022-07-30T21:14:18.503Z,57294.44
2022-07-30T21:16:46.853Z,57286.09
2022-07-30T21:19:17.664Z,57296.53
2022-07-30T21:21:48.245Z,57288.19
2022-07-30T21:24:19.384Z,57309.06
2022-07-30T21:26:50.700Z,57277.75
2022-07-30T21:29:18.971Z,57273.56
2022-07-30T21:32:01.580Z,57290.28
2022-07-30T21:34:35.889Z,57261.06
2022-07-30T21:37:09.080Z,57273.56
2022-07-30T21:39:39.539Z,57284.00
2022-07-30T21:42:07.630Z,57248.53
2022-07-30T21:44:34.366Z,57275.66
2022-07-30T21:47:01.017Z,57281.94
2022-07-30T21:49:28.045Z,57258.97
2022-07-30T21:51:58.462Z,57294.44
2022-07-30T21:54:29.021Z,57273.56
2022-07-30T21:56:58.598Z,57275.66
2022-07-30T21:59:25.725Z,57317.41
2022-07-30T22:01:55.380Z,57321.59
2022-07-30T22:04:22.213Z,57267.31
2022-07-30T22:06:48.865Z,57319.50
2022-07-30T22:09:19.345Z,57327.84
2022-07-30T22:12:02.078Z,57279.84
2022-07-30T22:14:33.939Z,57279.84
2022-07-30T22:17:01.539Z,57298.63
2022-07-30T22:19:31.180Z,57298.63
2022-07-30T22:21:58.696Z,57323.66
2022-07-30T22:24:31.457Z,57277.75
2022-07-30T22:27:14.478Z,57315.31
2022-07-30T22:29:43.094Z,57290.28
2022-07-30T22:32:10.773Z,57281.94
2022-07-30T22:34:37.659Z,57284.00
2022-07-30T22:37:04.697Z,57315.31
2022-07-30T22:39:50.254Z,57279.84
2022-07-30T22:42:24.539Z,57317.41
2022-07-30T22:44:52.431Z,57258.97
2022-07-30T22:47:21.668Z,57263.16
2022-07-30T22:50:06.356Z,57304.88
2022-07-30T22:52:39.082Z,57304.88
2022-07-30T22:55:09.090Z,57279.84
2022-07-30T22:57:37.674Z,57273.56
2022-07-30T23:00:10.971Z,57288.19
2022-07-30T23:02:40.422Z,57334.09
2022-07-30T23:05:08.511Z,57288.19
2022-07-30T23:07:39.740Z,57288.19
2022-07-30T23:10:17.281Z,57300.72
2022-07-30T23:12:48.242Z,57273.56
2022-07-30T23:15:15.140Z,57296.53
2022-07-30T23:17:41.867Z,57271.50
2022-07-30T23:20:11.532Z,57263.16
2022-07-30T23:22:38.654Z,57306.97
2022-07-30T23:25:07.282Z,57273.56
2022-07-30T23:27:34.469Z,57329.94
2022-07-30T23:30:01.168Z,57254.78
2022-07-30T23:32:28.184Z,57288.19
2022-07-30T23:34:54.846Z,57267.31
2022-07-30T23:37:21.874Z,57267.31
2022-07-30T23:39:48.477Z,57294.44
2022-07-30T23:42:15.380Z,57284.00
2022-07-30T23:44:42.045Z,57271.50
2022-07-30T23:47:08.619Z,57292.38
2022-07-30T23:49:35.237Z,57290.28
2022-07-30T23:52:01.865Z,57269.41
2022-07-30T23:54:28.991Z,57325.75
2022-07-30T23:56:56.321Z,57292.38
